Aviation Digital Data Service (ADDS)

Output produced by METARs form (2150 UTC 16 August 2017)
found at http://www.aviationweather.gov/adds/metars/
 
KALB 161725Z 1618/1718 32010KT P6SM SCT050 
     FM170000 31004KT P6SM SKC